Astrid — OFLT — position and weather

sailwx.info

Track history (hours):
 
Tides and Currents Weather Stations Pressure Air Temp Water Temp Dewpoint Dewpoint Depression Visibility Wind Speed Wind Dir Waves Ship Positions

Astrid

Last reported at 2014-Jul-25 04:24 UTC. Time now 2014-Jul-25 23:04 UTC.
Position N 59°49' E 022°58'.

Length 25 m; draft 2.3 m.

Type: Sailing vessel. MMSI: 230998670.

Date/timePositionNaut miles runAvg speedWind from/ knotsBaromVisibWave heightAir tempDewpointWater temp
2014-Jul-25 04:24N 59°49' E 022°58'0 0.0
2014-Jul-25 03:30N 59°49' E 022°58'0 0.0
2014-Jul-25 02:27N 59°49' E 022°58'0 0.0
2014-Jul-25 01:21N 59°49' E 022°58'0 0.0
2014-Jul-25 00:27N 59°49' E 022°58'0 0.0
2014-Jul-24 22:30N 59°49' E 022°58'0 0.0
2014-Jul-24 21:27N 59°49' E 022°58'0 0.0
2014-Jul-24 20:30N 59°49' E 022°58'20 0.5
2014-Jul-23 05:11N 59°51' E 022°19'25 1.3
2014-Jul-22 10:26N 59°49' E 023°09'5 5.9
2014-Jul-22 09:33N 59°51' E 023°18'3 2.6
2014-Jul-22 08:33N 59°51' E 023°23'0 0.0
2014-Jul-21 22:24N 59°52' E 023°23'3 4.0
2014-Jul-21 21:33N 59°51' E 023°30'7 6.6
2014-Jul-21 20:33N 59°54' E 023°42'2 6.9
2014-Jul-21 20:18N 59°55' E 023°45'6 6.2
2014-Jul-21 19:19N 59°55' E 023°57'22 5.8
2014-Jul-21 15:33N 60°02' E 024°39'7 6.6
2014-Jul-21 14:33N 60°07' E 024°47'5 4.9
2014-Jul-21 13:33N 60°09' E 024°57'2 0.5
2014-Jul-21 09:33N 60°10' E 024°60'4 3.9
2014-Jul-21 08:33N 60°06' E 024°58'4 3.8
2014-Jul-21 07:33N 60°10' E 024°59'0 0.0
2014-Jul-19 13:21N 60°10' E 024°58'5 5.8
2014-Jul-19 12:34N 60°08' E 024°50'7 7.4
2014-Jul-19 11:33N 60°03' E 024°40'29 1.1
2014-Jul-18 09:31N 59°54' E 023°44'7 7.1
2014-Jul-18 08:33N 59°52' E 023°31'4 0.3
2014-Jul-17 17:27N 59°52' E 023°23'4 4.0
2014-Jul-17 16:33N 59°50' E 023°17'  
Track history (hours):
 
Tides and Currents Weather Stations Pressure Air Temp Water Temp Dewpoint Dewpoint Depression Visibility Wind Speed Wind Dir Waves Ship Positions

Astrid

Last reported at 2014-Jul-25 04:24 UTC. Time now 2014-Jul-25 23:04 UTC.
Position N 59°49' E 022°58'.

Length 25 m; draft 2.3 m.

Type: Sailing vessel. MMSI: 230998670.

Date/timePositionNaut miles runAvg speedWind from/ knotsBaromVisibWave heightAir tempDewpointWater temp
2014-Jul-25 04:24N 59°49' E 022°58'0 0.0
2014-Jul-25 03:30N 59°49' E 022°58'0 0.0
2014-Jul-25 02:27N 59°49' E 022°58'0 0.0
2014-Jul-25 01:21N 59°49' E 022°58'0 0.0
2014-Jul-25 00:27N 59°49' E 022°58'0 0.0
2014-Jul-24 22:30N 59°49' E 022°58'0 0.0
2014-Jul-24 21:27N 59°49' E 022°58'0 0.0
2014-Jul-24 20:30N 59°49' E 022°58'20 0.5
2014-Jul-23 05:11N 59°51' E 022°19'25 1.3
2014-Jul-22 10:26N 59°49' E 023°09'5 5.9
2014-Jul-22 09:33N 59°51' E 023°18'3 2.6
2014-Jul-22 08:33N 59°51' E 023°23'0 0.0
2014-Jul-21 22:24N 59°52' E 023°23'3 4.0
2014-Jul-21 21:33N 59°51' E 023°30'7 6.6
2014-Jul-21 20:33N 59°54' E 023°42'2 6.9
2014-Jul-21 20:18N 59°55' E 023°45'6 6.2
2014-Jul-21 19:19N 59°55' E 023°57'22 5.8
2014-Jul-21 15:33N 60°02' E 024°39'7 6.6
2014-Jul-21 14:33N 60°07' E 024°47'5 4.9
2014-Jul-21 13:33N 60°09' E 024°57'2 0.5
2014-Jul-21 09:33N 60°10' E 024°60'4 3.9
2014-Jul-21 08:33N 60°06' E 024°58'4 3.8
2014-Jul-21 07:33N 60°10' E 024°59'0 0.0
2014-Jul-19 13:21N 60°10' E 024°58'5 5.8
2014-Jul-19 12:34N 60°08' E 024°50'7 7.4
2014-Jul-19 11:33N 60°03' E 024°40'29 1.1
2014-Jul-18 09:31N 59°54' E 023°44'7 7.1
2014-Jul-18 08:33N 59°52' E 023°31'4 0.3
2014-Jul-17 17:27N 59°52' E 023°23'4 4.0
2014-Jul-17 16:33N 59°50' E 023°17'  

Dump ship's entire track history